createdAt,value
2019-01-25T00:01:13.715Z,100049.84
2019-01-25T00:03:43.480Z,100050.60
2019-01-25T00:06:13.244Z,100055.12
2019-01-25T00:08:42.743Z,100052.80
2019-01-25T00:11:12.272Z,100058.45
2019-01-25T00:13:41.899Z,100069.05
2019-01-25T00:16:11.389Z,100075.88
2019-01-25T00:18:40.942Z,100070.02
2019-01-25T00:21:10.538Z,100078.84
2019-01-25T00:23:40.072Z,100082.34
2019-01-25T00:26:09.685Z,100087.73
2019-01-25T00:28:39.253Z,100081.27
2019-01-25T00:31:08.816Z,100086.44
2019-01-25T00:33:38.322Z,100089.13
2019-01-25T00:36:08.011Z,100081.37
2019-01-25T00:38:37.522Z,100071.30
2019-01-25T00:41:07.125Z,100064.06
2019-01-25T00:43:36.689Z,100066.92
2019-01-25T00:46:06.291Z,100079.77
2019-01-25T00:48:35.876Z,100084.82
2019-01-25T00:51:05.804Z,100091.77
2019-01-25T00:53:35.435Z,100087.52
2019-01-25T00:56:06.085Z,100092.66
2019-01-25T00:58:35.693Z,100099.38
2019-01-25T01:01:05.625Z,100099.67
2019-01-25T01:03:35.611Z,100099.62
2019-01-25T01:06:05.433Z,100110.56
2019-01-25T01:08:34.955Z,100109.20
2019-01-25T01:11:04.682Z,100102.75
2019-01-25T01:13:34.196Z,100098.95
2019-01-25T01:16:04.272Z,100105.89
2019-01-25T01:18:33.881Z,100107.17
2019-01-25T01:21:03.377Z,100103.62
2019-01-25T01:23:32.874Z,100099.51
2019-01-25T01:26:02.473Z,100099.61
2019-01-25T01:28:31.974Z,100098.13
2019-01-25T01:31:01.479Z,100101.63
2019-01-25T01:33:31.025Z,100115.39
2019-01-25T01:36:00.535Z,100116.64
2019-01-25T01:38:30.082Z,100119.81
2019-01-25T01:40:59.649Z,100121.88
2019-01-25T01:43:29.175Z,100123.39
2019-01-25T01:45:58.687Z,100131.15
2019-01-25T01:48:28.232Z,100134.49
2019-01-25T01:50:57.759Z,100136.08
2019-01-25T01:53:27.269Z,100138.92
2019-01-25T01:55:56.839Z,100130.21
2019-01-25T01:58:26.391Z,100117.72
2019-01-25T02:00:55.891Z,100118.02
2019-01-25T02:03:25.396Z,100118.59
2019-01-25T02:05:54.972Z,100132.69
2019-01-25T02:08:24.471Z,100146.10
2019-01-25T02:10:54.031Z,100132.61
2019-01-25T02:13:23.535Z,100124.89
2019-01-25T02:15:53.195Z,100127.48
2019-01-25T02:18:22.908Z,100121.22
2019-01-25T02:20:52.516Z,100114.57
2019-01-25T02:23:22.016Z,100111.27
2019-01-25T02:25:51.614Z,100112.36
2019-01-25T02:28:21.111Z,100118.25
2019-01-25T02:30:50.610Z,100111.44
2019-01-25T02:33:20.154Z,100111.33
2019-01-25T02:35:49.655Z,100102.20
2019-01-25T02:38:19.155Z,100103.28
2019-01-25T02:40:48.809Z,100095.37
2019-01-25T02:43:18.314Z,100089.44
2019-01-25T02:45:47.821Z,100093.69
2019-01-25T02:48:17.379Z,100104.47
2019-01-25T02:50:46.886Z,100101.61
2019-01-25T02:53:16.388Z,100103.10
2019-01-25T02:55:45.933Z,100093.88
2019-01-25T02:58:15.448Z,100105.86
2019-01-25T03:00:44.953Z,100116.91
2019-01-25T03:03:14.517Z,100120.80
2019-01-25T03:05:44.082Z,100118.48
2019-01-25T03:08:13.593Z,100118.13
2019-01-25T03:10:47.236Z,100121.56
2019-01-25T03:13:14.439Z,100125.30
2019-01-25T03:15:43.947Z,100128.53
2019-01-25T03:18:13.511Z,100132.30
2019-01-25T03:20:43.014Z,100137.68
2019-01-25T03:23:12.572Z,100139.95
2019-01-25T03:25:42.082Z,100144.06
2019-01-25T03:28:11.579Z,100144.00
2019-01-25T03:30:41.163Z,100145.89
2019-01-25T03:33:10.699Z,100148.80
2019-01-25T03:35:40.297Z,100151.20
2019-01-25T03:38:11.454Z,100160.42
2019-01-25T03:40:40.995Z,100161.20
2019-01-25T03:43:10.525Z,100160.69
2019-01-25T03:45:40.157Z,100160.96
2019-01-25T03:48:10.017Z,100158.84
2019-01-25T03:50:39.538Z,100157.56
2019-01-25T03:53:09.136Z,100152.05
2019-01-25T03:55:38.657Z,100149.73
2019-01-25T03:58:08.196Z,100149.28
2019-01-25T04:00:37.806Z,100147.05
2019-01-25T04:03:07.873Z,100149.63
2019-01-25T04:05:37.407Z,100138.19
2019-01-25T04:08:07.110Z,100143.13
2019-01-25T04:10:36.688Z,100149.77
2019-01-25T04:13:06.631Z,100167.27
2019-01-25T04:15:36.354Z,100167.30
2019-01-25T04:18:07.142Z,100162.04
2019-01-25T04:20:36.719Z,100157.86
2019-01-25T04:23:06.613Z,100161.64
2019-01-25T04:25:36.139Z,100164.02
2019-01-25T04:28:05.697Z,100160.41
2019-01-25T04:30:36.542Z,100150.94
2019-01-25T04:33:06.215Z,100150.17
2019-01-25T04:35:35.750Z,100149.59
2019-01-25T04:38:05.426Z,100153.78
2019-01-25T04:40:34.935Z,100161.63
2019-01-25T04:43:04.680Z,100160.27
2019-01-25T04:45:34.210Z,100169.00
2019-01-25T04:48:03.741Z,100173.73
2019-01-25T04:50:33.298Z,100189.53
2019-01-25T04:53:02.847Z,100182.80
2019-01-25T04:55:35.502Z,100185.28
2019-01-25T04:58:11.425Z,100185.28
2019-01-25T05:00:40.953Z,100189.81
2019-01-25T05:03:10.574Z,100192.28
2019-01-25T05:05:40.348Z,100204.23
2019-01-25T05:08:16.061Z,100205.73
2019-01-25T05:10:46.187Z,100207.00
2019-01-25T05:13:15.806Z,100192.59
2019-01-25T05:15:45.500Z,100198.11
2019-01-25T05:18:15.258Z,100202.40
2019-01-25T05:20:44.931Z,100203.66
2019-01-25T05:23:14.454Z,100204.64
2019-01-25T05:25:43.985Z,100192.30
2019-01-25T05:28:22.239Z,100195.86
2019-01-25T05:31:03.210Z,100201.16
2019-01-25T05:33:34.162Z,100208.38
2019-01-25T05:36:03.711Z,100212.11
2019-01-25T05:38:33.227Z,100219.63
2019-01-25T05:41:02.818Z,100213.98
2019-01-25T05:43:40.368Z,100215.38
2019-01-25T05:46:11.315Z,100222.45
2019-01-25T05:48:40.821Z,100210.73
2019-01-25T05:51:10.425Z,100213.69
2019-01-25T05:53:43.055Z,100219.38
2019-01-25T05:56:12.623Z,100226.95
2019-01-25T05:58:42.130Z,100220.39
2019-01-25T06:01:11.642Z,100222.00
2019-01-25T06:03:42.523Z,100228.14
2019-01-25T06:06:12.088Z,100230.30
2019-01-25T06:08:44.000Z,100228.38
2019-01-25T06:11:13.815Z,100235.53
2019-01-25T06:13:46.961Z,100232.36
2019-01-25T06:16:17.046Z,100235.92
2019-01-25T06:18:46.582Z,100235.29
2019-01-25T06:21:16.105Z,100230.55
2019-01-25T06:23:45.689Z,100233.20
2019-01-25T06:26:15.546Z,100237.34
2019-01-25T06:28:50.796Z,100240.86
2019-01-25T06:31:21.318Z,100241.84
2019-01-25T06:33:50.839Z,100258.97
2019-01-25T06:36:20.574Z,100261.06
2019-01-25T06:38:50.175Z,100252.48
2019-01-25T06:41:19.696Z,100248.81
2019-01-25T06:43:49.232Z,100252.09
2019-01-25T06:46:18.802Z,100248.61
2019-01-25T06:48:48.341Z,100250.49
2019-01-25T06:51:17.861Z,100251.44
2019-01-25T06:53:47.470Z,100258.06
2019-01-25T06:56:16.969Z,100242.02
2019-01-25T06:59:01.952Z,100236.23
2019-01-25T07:01:39.894Z,100235.29
2019-01-25T07:04:09.477Z,100237.70
2019-01-25T07:06:39.120Z,100236.75
2019-01-25T07:09:11.370Z,100238.70
2019-01-25T07:11:42.259Z,100239.20
2019-01-25T07:14:12.264Z,100250.66
2019-01-25T07:16:41.875Z,100256.25
2019-01-25T07:19:11.327Z,100261.34
2019-01-25T07:21:40.819Z,100262.91
2019-01-25T07:24:10.398Z,100263.81
2019-01-25T07:26:39.898Z,100264.02
2019-01-25T07:29:09.468Z,100258.27
2019-01-25T07:31:38.954Z,100251.36
2019-01-25T07:34:09.008Z,100244.88
2019-01-25T07:36:38.561Z,100238.04
2019-01-25T07:39:31.802Z,100238.01
2019-01-25T07:42:02.353Z,100240.59
2019-01-25T07:44:32.089Z,100237.20
2019-01-25T07:47:01.648Z,100250.16
2019-01-25T07:49:31.221Z,100246.63
2019-01-25T07:52:00.720Z,100249.23
2019-01-25T07:54:30.240Z,100246.47
2019-01-25T07:57:00.242Z,100246.38
2019-01-25T07:59:30.104Z,100244.19
2019-01-25T08:01:59.572Z,100242.41
2019-01-25T08:04:29.122Z,100262.31
2019-01-25T08:06:58.837Z,100256.89
2019-01-25T08:09:28.373Z,100263.17
2019-01-25T08:11:57.979Z,100267.27
2019-01-25T08:14:27.494Z,100261.84
2019-01-25T08:16:57.033Z,100259.44
2019-01-25T08:19:26.666Z,100265.44
2019-01-25T08:21:56.301Z,100269.99
2019-01-25T08:24:25.936Z,100273.99
2019-01-25T08:26:55.429Z,100260.63
2019-01-25T08:29:28.239Z,100259.42
2019-01-25T08:31:56.285Z,100259.67
2019-01-25T08:34:25.840Z,100259.00
2019-01-25T08:36:55.411Z,100247.72
2019-01-25T08:39:24.909Z,100252.52
2019-01-25T08:41:54.415Z,100244.75
2019-01-25T08:44:24.000Z,100244.17
2019-01-25T08:46:53.554Z,100259.61
2019-01-25T08:49:23.150Z,100260.72
2019-01-25T08:51:52.700Z,100263.77
2019-01-25T08:54:22.266Z,100244.91
2019-01-25T08:56:51.838Z,100252.81
2019-01-25T08:59:21.373Z,100264.69
2019-01-25T09:01:52.127Z,100269.03
2019-01-25T09:04:21.627Z,100268.50
2019-01-25T09:06:51.282Z,100261.20
2019-01-25T09:09:20.765Z,100258.04
2019-01-25T09:11:50.268Z,100250.11
2019-01-25T09:14:19.803Z,100265.70
2019-01-25T09:16:49.324Z,100265.62
2019-01-25T09:19:18.821Z,100273.45
2019-01-25T09:21:48.383Z,100269.83
2019-01-25T09:24:17.887Z,100262.66
2019-01-25T09:26:47.434Z,100276.67
2019-01-25T09:29:16.955Z,100277.06
2019-01-25T09:31:46.481Z,100278.66
2019-01-25T09:34:16.073Z,100275.68
2019-01-25T09:36:45.601Z,100281.05
2019-01-25T09:39:15.104Z,100277.44
2019-01-25T09:41:44.664Z,100280.03
2019-01-25T09:44:14.168Z,100268.52
2019-01-25T09:46:43.665Z,100271.41
2019-01-25T09:49:13.224Z,100263.19
2019-01-25T09:51:43.030Z,100257.29
2019-01-25T09:54:12.580Z,100258.66
2019-01-25T09:56:42.160Z,100248.34
2019-01-25T09:59:13.034Z,100237.23
2019-01-25T10:01:42.543Z,100238.92
2019-01-25T10:04:12.044Z,100236.34
2019-01-25T10:06:41.611Z,100229.41
2019-01-25T10:09:11.170Z,100221.48
2019-01-25T10:11:40.737Z,100217.13
2019-01-25T10:14:10.256Z,100219.90
2019-01-25T10:16:39.784Z,100228.62
2019-01-25T10:19:09.349Z,100229.11
2019-01-25T10:21:38.951Z,100229.81
2019-01-25T10:24:08.467Z,100219.16
2019-01-25T10:26:38.020Z,100218.68
2019-01-25T10:29:07.547Z,100216.63
2019-01-25T10:31:37.210Z,100216.59
2019-01-25T10:34:06.810Z,100216.52
2019-01-25T10:36:36.336Z,100223.22
2019-01-25T10:39:08.743Z,100222.70
2019-01-25T10:41:38.345Z,100225.39
2019-01-25T10:44:09.208Z,100226.13
2019-01-25T10:46:38.748Z,100211.99
2019-01-25T10:49:08.311Z,100214.30
2019-01-25T10:51:37.872Z,100200.83
2019-01-25T10:54:07.796Z,100191.17
2019-01-25T10:56:41.754Z,100188.91
2019-01-25T10:59:08.624Z,100190.81
2019-01-25T11:01:39.353Z,100172.89
2019-01-25T11:04:11.503Z,100184.40
2019-01-25T11:06:40.298Z,100176.98
2019-01-25T11:09:10.507Z,100175.70
2019-01-25T11:11:40.254Z,100177.27
2019-01-25T11:14:09.765Z,100183.20
2019-01-25T11:16:39.260Z,100179.87
2019-01-25T11:19:08.818Z,100175.98
2019-01-25T11:21:38.336Z,100173.25
2019-01-25T11:24:08.051Z,100175.53
2019-01-25T11:26:37.670Z,100174.03
2019-01-25T11:29:07.189Z,100184.59
2019-01-25T11:31:36.691Z,100185.57
2019-01-25T11:34:06.245Z,100183.66
2019-01-25T11:36:35.795Z,100187.31
2019-01-25T11:39:09.937Z,100188.67
2019-01-25T11:41:39.436Z,100186.89
2019-01-25T11:44:09.081Z,100185.44
2019-01-25T11:46:38.635Z,100191.01
2019-01-25T11:49:08.131Z,100186.48
2019-01-25T11:51:37.684Z,100186.37
2019-01-25T11:54:07.199Z,100182.19
2019-01-25T11:56:36.693Z,100183.77
2019-01-25T11:59:06.311Z,100178.53
2019-01-25T12:01:35.827Z,100181.53
2019-01-25T12:04:05.596Z,100179.16
2019-01-25T12:06:35.151Z,100187.52
2019-01-25T12:09:07.398Z,100172.98
2019-01-25T12:11:36.940Z,100166.16
2019-01-25T12:14:06.655Z,100165.00
2019-01-25T12:16:36.166Z,100156.98
2019-01-25T12:19:05.850Z,100149.24
2019-01-25T12:21:35.420Z,100147.64
2019-01-25T12:24:05.138Z,100150.64
2019-01-25T12:26:34.724Z,100133.84
2019-01-25T12:29:04.227Z,100145.98
2019-01-25T12:31:33.728Z,100149.29
2019-01-25T12:34:03.289Z,100146.05
2019-01-25T12:36:32.937Z,100148.25
2019-01-25T12:39:02.536Z,100149.98
2019-01-25T12:41:32.092Z,100149.81
2019-01-25T12:44:01.588Z,100146.50
2019-01-25T12:46:32.120Z,100146.50
2019-01-25T12:49:01.835Z,100145.73
2019-01-25T12:51:49.112Z,100153.65
2019-01-25T12:54:18.843Z,100146.13
2019-01-25T12:56:48.405Z,100148.53
2019-01-25T12:59:17.993Z,100145.95
2019-01-25T13:01:47.573Z,100142.53
2019-01-25T13:04:17.099Z,100146.47
2019-01-25T13:06:46.707Z,100141.14
2019-01-25T13:09:16.276Z,100137.17
2019-01-25T13:11:48.262Z,100146.82
2019-01-25T13:14:17.858Z,100137.93
2019-01-25T13:16:47.401Z,100140.34
2019-01-25T13:19:18.187Z,100137.83
2019-01-25T13:21:47.704Z,100136.08
2019-01-25T13:24:17.236Z,100147.89
2019-01-25T13:26:48.082Z,100139.95
2019-01-25T13:29:17.715Z,100137.72
2019-01-25T13:31:47.242Z,100142.04
2019-01-25T13:34:16.895Z,100138.14
2019-01-25T13:36:46.600Z,100128.17
2019-01-25T13:39:16.213Z,100131.69
2019-01-25T13:41:45.727Z,100125.28
2019-01-25T13:44:15.239Z,100132.39
2019-01-25T13:46:44.770Z,100140.65
2019-01-25T13:49:14.268Z,100122.04
2019-01-25T13:51:43.820Z,100132.59
2019-01-25T13:54:13.335Z,100130.12
2019-01-25T13:56:42.843Z,100129.56
2019-01-25T13:59:12.442Z,100125.83
2019-01-25T14:01:42.014Z,100131.13
2019-01-25T14:04:11.518Z,100129.84
2019-01-25T14:06:41.097Z,100123.89
2019-01-25T14:09:11.001Z,100137.06
2019-01-25T14:11:40.576Z,100127.58
2019-01-25T14:14:10.080Z,100125.36
2019-01-25T14:16:39.593Z,100114.52
2019-01-25T14:19:09.157Z,100119.45
2019-01-25T14:21:38.663Z,100121.90
2019-01-25T14:24:08.822Z,100111.97
2019-01-25T14:26:38.612Z,100104.06
2019-01-25T14:29:08.187Z,100110.71
2019-01-25T14:31:37.685Z,100096.36
2019-01-25T14:34:07.364Z,100090.05
2019-01-25T14:36:36.888Z,100084.86
2019-01-25T14:39:08.869Z,100093.53
2019-01-25T14:41:38.370Z,100073.26
2019-01-25T14:44:07.872Z,100067.45
2019-01-25T14:46:38.764Z,100069.36
2019-01-25T14:49:08.285Z,100070.80
2019-01-25T14:51:39.117Z,100069.75
2019-01-25T14:54:08.669Z,100074.91
2019-01-25T14:56:38.193Z,100072.51
2019-01-25T14:59:07.794Z,100062.37
2019-01-25T15:01:37.361Z,100063.38
2019-01-25T15:04:06.917Z,100059.20
2019-01-25T15:06:36.502Z,100063.27
2019-01-25T15:09:09.453Z,100073.20
2019-01-25T15:11:38.959Z,100077.07
2019-01-25T15:14:08.730Z,100080.13
2019-01-25T15:16:38.246Z,100067.31
2019-01-25T15:19:09.193Z,100072.55
2019-01-25T15:21:38.915Z,100075.05
2019-01-25T15:24:08.439Z,100070.59
2019-01-25T15:26:37.951Z,100067.17
2019-01-25T15:29:07.495Z,100070.21
2019-01-25T15:31:36.988Z,100067.28
2019-01-25T15:34:06.594Z,100067.56
2019-01-25T15:36:36.240Z,100078.08
2019-01-25T15:39:09.844Z,100077.00
2019-01-25T15:41:39.447Z,100073.38
2019-01-25T15:44:10.146Z,100076.06
2019-01-25T15:46:40.118Z,100066.41
2019-01-25T15:49:10.038Z,100078.36
2019-01-25T15:51:41.219Z,100068.05
2019-01-25T15:54:10.936Z,100070.80
2019-01-25T15:56:40.633Z,100066.03
2019-01-25T15:59:10.283Z,100074.66
2019-01-25T16:01:39.836Z,100075.98
2019-01-25T16:04:09.353Z,100077.28
2019-01-25T16:06:38.925Z,100080.34
2019-01-25T16:09:14.075Z,100078.73
2019-01-25T16:11:40.831Z,100082.08
2019-01-25T16:14:17.670Z,100073.90
2019-01-25T16:16:41.676Z,100064.95
2019-01-25T16:19:11.181Z,100073.41
2019-01-25T16:21:40.893Z,100068.19
2019-01-25T16:24:10.430Z,100072.95
2019-01-25T16:26:39.935Z,100071.98
2019-01-25T16:29:09.445Z,100075.50
2019-01-25T16:31:38.988Z,100072.47
2019-01-25T16:34:08.497Z,100069.44
2019-01-25T16:36:37.996Z,100063.38
2019-01-25T16:39:09.356Z,100059.78
2019-01-25T16:41:38.884Z,100055.66
2019-01-25T16:44:08.395Z,100050.70
2019-01-25T16:46:39.145Z,100044.09
2019-01-25T16:49:08.654Z,100045.05
2019-01-25T16:51:38.251Z,100050.10
2019-01-25T16:54:08.432Z,100060.16
2019-01-25T16:56:37.941Z,100050.05
2019-01-25T16:59:07.708Z,100048.58
2019-01-25T17:01:37.261Z,100038.45
2019-01-25T17:04:06.787Z,100036.97
2019-01-25T17:06:36.290Z,100041.59
2019-01-25T17:09:08.364Z,100035.42
2019-01-25T17:11:37.889Z,100035.92
2019-01-25T17:14:07.432Z,100019.95
2019-01-25T17:16:37.019Z,100019.69
2019-01-25T17:19:06.543Z,100030.84
2019-01-25T17:21:36.283Z,100022.64
2019-01-25T17:24:06.074Z,100029.17
2019-01-25T17:26:35.591Z,100032.12
2019-01-25T17:29:05.421Z,100014.72
2019-01-25T17:31:34.975Z,100034.98
2019-01-25T17:34:05.072Z,100035.73
2019-01-25T17:36:34.549Z,100027.89
2019-01-25T17:39:05.638Z,100021.36
2019-01-25T17:41:35.191Z,100021.36
2019-01-25T17:44:04.856Z,100023.61
2019-01-25T17:46:34.454Z,100024.33
2019-01-25T17:49:03.966Z,100001.11
2019-01-25T17:51:33.499Z,100025.28
2019-01-25T17:54:03.060Z,100023.35
2019-01-25T17:56:32.576Z,100016.44
2019-01-25T17:59:02.200Z,100023.27
2019-01-25T18:01:31.752Z,100011.17
2019-01-25T18:04:01.267Z,100015.34
2019-01-25T18:06:30.788Z,100015.98
2019-01-25T18:09:00.389Z,100017.47
2019-01-25T18:11:29.925Z,100016.26
2019-01-25T18:13:59.448Z,100011.77
2019-01-25T18:16:29.033Z,100009.72
2019-01-25T18:18:58.578Z,100012.41
2019-01-25T18:21:28.185Z,100005.95
2019-01-25T18:23:57.802Z,99996.08
2019-01-25T18:26:27.574Z,99997.00
2019-01-25T18:29:10.971Z,100014.23
2019-01-25T18:31:40.514Z,99986.59
2019-01-25T18:34:10.130Z,99998.66
2019-01-25T18:36:39.661Z,99991.30
2019-01-25T18:39:10.356Z,99981.69
2019-01-25T18:41:41.168Z,99982.52
2019-01-25T18:44:10.728Z,99976.98
2019-01-25T18:46:40.248Z,99974.97
2019-01-25T18:49:10.016Z,99970.91
2019-01-25T18:51:39.604Z,99979.67
2019-01-25T18:54:09.207Z,99960.65
2019-01-25T18:56:38.813Z,99965.81
2019-01-25T18:59:08.395Z,99952.63
2019-01-25T19:01:38.140Z,99965.54
2019-01-25T19:04:07.686Z,99959.84
2019-01-25T19:06:37.198Z,99949.39
2019-01-25T19:09:09.446Z,99949.13
2019-01-25T19:11:38.945Z,99930.67
2019-01-25T19:14:08.605Z,99942.02
2019-01-25T19:16:39.603Z,99931.95
2019-01-25T19:19:09.137Z,99930.13
2019-01-25T19:21:38.685Z,99920.15
2019-01-25T19:24:08.249Z,99924.50
2019-01-25T19:26:37.801Z,99932.70
2019-01-25T19:29:07.434Z,99929.66
2019-01-25T19:31:38.621Z,99931.59
2019-01-25T19:34:08.159Z,99938.13
2019-01-25T19:36:37.704Z,99930.30
2019-01-25T19:39:11.664Z,99929.73
2019-01-25T19:41:41.232Z,99930.55
2019-01-25T19:44:11.052Z,99933.26
2019-01-25T19:46:40.747Z,99928.83
2019-01-25T19:49:10.379Z,99935.09
2019-01-25T19:51:40.332Z,99929.86
2019-01-25T19:54:10.121Z,99930.14
2019-01-25T19:56:39.677Z,99929.20
2019-01-25T19:59:09.317Z,99925.61
2019-01-25T20:01:38.905Z,99930.05
2019-01-25T20:04:08.586Z,99920.56
2019-01-25T20:06:38.153Z,99924.06
2019-01-25T20:09:10.949Z,99914.46
2019-01-25T20:11:40.508Z,99921.56
2019-01-25T20:14:10.091Z,99910.87
2019-01-25T20:16:39.717Z,99909.86
2019-01-25T20:19:09.449Z,99906.99
2019-01-25T20:21:39.000Z,99913.89
2019-01-25T20:24:08.582Z,99904.66
2019-01-25T20:26:38.513Z,99906.12
2019-01-25T20:29:08.162Z,99918.78
2019-01-25T20:31:39.148Z,99903.45
2019-01-25T20:34:08.754Z,99899.12
2019-01-25T20:36:38.291Z,99909.63
2019-01-25T20:39:10.553Z,99899.50
2019-01-25T20:41:40.129Z,99891.00
2019-01-25T20:44:09.700Z,99902.42
2019-01-25T20:46:39.294Z,99909.55
2019-01-25T20:49:08.858Z,99901.31
2019-01-25T20:51:38.387Z,99905.27
2019-01-25T20:54:08.159Z,99904.56
2019-01-25T20:56:37.712Z,99902.77
2019-01-25T20:59:08.843Z,99898.73
2019-01-25T21:01:38.377Z,99908.61
2019-01-25T21:04:08.238Z,99897.98
2019-01-25T21:06:37.790Z,99896.69
2019-01-25T21:09:09.892Z,99902.23
2019-01-25T21:11:39.974Z,99895.31
2019-01-25T21:14:09.681Z,99892.45
2019-01-25T21:16:39.203Z,99898.91
2019-01-25T21:19:08.753Z,99913.30
2019-01-25T21:21:39.548Z,99900.45
2019-01-25T21:24:10.055Z,99898.12
2019-01-25T21:26:39.770Z,99894.08
2019-01-25T21:29:10.709Z,99886.33
2019-01-25T21:31:40.236Z,99889.49
2019-01-25T21:34:09.785Z,99895.11
2019-01-25T21:36:40.229Z,99885.70
2019-01-25T21:39:10.680Z,99878.98
2019-01-25T21:41:40.208Z,99871.03
2019-01-25T21:44:09.795Z,99862.73
2019-01-25T21:46:40.384Z,99857.11
2019-01-25T21:49:10.314Z,99855.02
2019-01-25T21:51:46.352Z,99842.47
2019-01-25T21:54:16.021Z,99864.23
2019-01-25T21:56:45.696Z,99856.77
2019-01-25T21:59:15.324Z,99873.02
2019-01-25T22:01:44.969Z,99864.60
2019-01-25T22:04:14.631Z,99860.35
2019-01-25T22:06:45.636Z,99855.19
2019-01-25T22:09:15.160Z,99863.05
2019-01-25T22:11:45.192Z,99851.14
2019-01-25T22:14:14.761Z,99848.55
2019-01-25T22:16:44.828Z,99843.48
2019-01-25T22:19:14.771Z,99848.19
2019-01-25T22:21:44.295Z,99852.14
2019-01-25T22:24:14.230Z,99849.45
2019-01-25T22:26:43.836Z,99849.73
2019-01-25T22:29:13.370Z,99850.48
2019-01-25T22:31:42.914Z,99853.32
2019-01-25T22:34:13.311Z,99865.32
2019-01-25T22:36:42.812Z,99880.45
2019-01-25T22:39:12.804Z,99890.55
2019-01-25T22:41:42.338Z,99905.72
2019-01-25T22:44:11.894Z,99910.13
2019-01-25T22:46:41.444Z,99911.92
2019-01-25T22:49:10.990Z,99908.05
2019-01-25T22:51:40.658Z,99904.59
2019-01-25T22:54:10.224Z,99898.05
2019-01-25T22:56:39.766Z,99884.23
2019-01-25T22:59:09.322Z,99887.37
2019-01-25T23:01:38.995Z,99880.27
2019-01-25T23:04:48.676Z,99880.27
2019-01-25T23:07:24.090Z,99883.69
2019-01-25T23:10:07.379Z,99876.03
2019-01-25T23:12:37.087Z,99865.98
2019-01-25T23:15:09.692Z,99870.48
2019-01-25T23:17:39.332Z,99876.48
2019-01-25T23:22:41.467Z,99863.69
2019-01-25T23:25:11.443Z,99861.47
2019-01-25T23:27:40.972Z,99866.55
2019-01-25T23:30:16.050Z,99864.52
2019-01-25T23:32:45.595Z,99862.88
2019-01-25T23:35:15.222Z,99857.52
2019-01-25T23:37:44.764Z,99857.14
2019-01-25T23:40:15.830Z,99847.67
2019-01-25T23:42:45.363Z,99842.38
2019-01-25T23:45:14.867Z,99834.75
2019-01-25T23:47:44.432Z,99819.55
2019-01-25T23:50:14.170Z,99829.21
2019-01-25T23:52:43.769Z,99834.38
2019-01-25T23:55:13.512Z,99831.77
2019-01-25T23:57:43.065Z,99818.69
